College Mound, Missouri
Current Conditions -  °F | °C
As of 6:55 AM on Friday 28 Nov 2014 (Local Time) from KIRK Reporting Station
Clear Clear  
Wind Chill: 12°   Ceiling: Unl
Heat Index: 24°   Visibility: 9mi
Dew Point: 22°   Wind: 13mph
Humidity: 91%   Direction: 160°SSE
Pressure: 30.07"   Gusts: NA
Location:  39.6493°N, 92.4492°W
Report Text: KIRK 281255Z AUTO 16011KT 9SM CLR M04/M06 A3007 RMK AO2 SLP200 T10441056
Loading
Personal Weather Stations






























Interactive Weather Map New forecast layout! Learn more

10-Day Weather Forecast

Advertisements
Track Severe Weather on mobile